This is the latest recevied weather packets stored in our database for station/object KD2RHT-13. If no packets are shown the sender has not sent any weather packets the latest 10 day(s).
| Time | Temp. | Humidity | Pressure | Rain* | Wind** | Luminosity | Snow |
|---|---|---|---|---|---|---|---|
| 1777664104 | 12.22° C | 54% | 1012.7 hPa | 0 mm | - | 206 W/m² | - |
| 1777659552 | 13.33° C | 51% | 1013.5 hPa | 0 mm | - | 286 W/m² | - |
| 1777658946 | 13.33° C | 49% | 1013.1 hPa | 0 mm | - | 360 W/m² | - |
| 1777655912 | 13.33° C | 48% | 1013.5 hPa | 0 mm | - | 454 W/m² | - |
| 1777655609 | 12.78° C | 49% | 1013.5 hPa | 0 mm | - | 624 W/m² | - |
| 1777655003 | 13.89° C | 52% | 1013.9 hPa | 0 mm | - | 329 W/m² | - |
| 1777654700 | 13.33° C | 50% | 1013.9 hPa | 0 mm | - | 893 W/m² | - |
| 1777653793 | 13.33° C | 53% | 1013.9 hPa | 0 mm | - | 884 W/m² | - |
| 1777653488 | 13.89° C | 50% | 1014.2 hPa | 0 mm | - | 391 W/m² | - |
| 1777653186 | 13.89° C | 49% | 1014.2 hPa | 0 mm | - | 971 W/m² | - |
| 1777652881 | 14.44° C | 51% | 1014.5 hPa | 0 mm | - | 373 W/m² | - |
| 1777652579 | 13.33° C | 52% | 1014.2 hPa | 0 mm | - | 910 W/m² | - |
| 1777652275 | 13.33° C | 54% | 1014.2 hPa | 0 mm | - | 829 W/m² | - |
| 1777651973 | 13.89° C | 49% | 1014.2 hPa | 0 mm | - | 815 W/m² | - |
| 1777651669 | 13.33° C | 59% | 1014.2 hPa | 0 mm | - | 947 W/m² | - |
| 1777651366 | 13.33° C | 53% | 1014.2 hPa | 0 mm | - | 902 W/m² | - |
| 1777651063 | 12.78° C | 52% | 1014.2 hPa | 0 mm | - | 869 W/m² | - |
| 1777650457 | 13.33° C | 52% | 1014.5 hPa | 0 mm | - | 874 W/m² | - |
| 1777650154 | 12.22° C | 57% | 1014.5 hPa | 0 mm | - | 892 W/m² | - |
| 1777649852 | 12.22° C | 51% | 1014.5 hPa | 0 mm | - | 877 W/m² | - |
| 1777649549 | 11.67° C | 54% | 1014.9 hPa | 0 mm | - | 878 W/m² | - |
| 1777649245 | 11.67° C | 57% | 1014.9 hPa | 0 mm | - | 855 W/m² | - |
| 1777648942 | 11.67° C | 55% | 1014.5 hPa | 0 mm | - | 868 W/m² | - |
| 1777648639 | 11.67° C | 57% | 1014.9 hPa | 0 mm | - | 861 W/m² | - |
| 1777648335 | 12.22° C | 53% | 1014.9 hPa | 0 mm | - | 838 W/m² | - |
* Rain latest hour (hover to see other rain measurements)
** Current wind speed in m/s (hover to see current wind gust speed)